Ekaterinburg, Russia
Current Conditions -  °F | °C
As of 2:30 AM on Tuesday 25 Nov 2014 (Local Time) from USSS Reporting Station
Blowing Snow Blowing Snow  
Wind Chill: -13°   Ceiling: 20000
Heat Index:   Visibility: 6mi
Dew Point: -2°   Wind: 20mph
Humidity: 67%   Direction: 270°W
Pressure: 30.36"   Gusts: NA
Location:  56.83°N, 60.63°E
Report Text: USSS 242130Z 27009MPS 9999 DRSN BKN200 M14/M19 Q1028 76810350NOSIG RMK QFE750
Loading
Personal Weather Stations






























Interactive Weather Map New forecast layout! Learn more

10-Day Weather Forecast

Advertisements
Track Severe Weather on mobile